Time;durP1;ratioP1;P1;durP2;ratioP2;P2;SDS_P1;SDS_P2;PMS_P1;PMS_P2;Temp;Humidity;BMP_temperature;BMP_pressure;BME280_temperature;BME280_humidity;BME280_pressure;Samples;Min_cycle;Max_cycle;Signal;HPM_P1;HPM_P2
2022/08/29 00:00:26;;;;;;;7.47;5.25;;;;;;;21.23;63.22;99178.53;5087752;28;20040;-70
2022/08/29 00:02:56;;;;;;;7.40;5.35;;;;;;;21.38;63.12;99193.13;5087517;28;20057;-71
2022/08/29 00:05:28;;;;;;;6.90;5.28;;;;;;;21.35;62.76;99190.75;5088011;28;20243;-70
2022/08/29 00:08:00;;;;;;;6.90;4.95;;;;;;;20.72;63.14;99124.34;5088327;28;20117;-70
2022/08/29 00:10:30;;;;;;;7.80;6.07;;;;;;;21.36;62.78;99192.44;5087412;28;20049;-71
2022/08/29 00:12:58;;;;;;;13.50;9.00;;;;;;;21.19;63.43;99182.53;5087328;28;20062;-70
2022/08/29 00:15:26;;;;;;;11.45;7.65;;;;;;;20.94;63.34;99149.97;5087684;28;20060;-70
2022/08/29 00:17:53;;;;;;;11.38;9.27;;;;;;;21.21;62.97;99181.38;5087324;28;20229;-71
2022/08/29 00:20:25;;;;;;;8.13;6.32;;;;;;;21.32;62.98;99196.44;5087826;28;20057;-71
2022/08/29 00:22:58;;;;;;;6.88;6.10;;;;;;;21.31;63.19;99192.91;5088025;28;20052;-71
2022/08/29 00:25:34;;;;;;;7.10;6.30;;;;;;;21.29;62.64;99189.53;5087089;28;20052;-70
2022/08/29 00:28:05;;;;;;;6.43;5.55;;;;;;;21.25;63.43;99177.38;5088542;28;20036;-71
2022/08/29 00:30:33;;;;;;;7.72;5.57;;;;;;;21.27;63.20;99191.53;5069788;28;20380;-71
2022/08/29 00:33:00;;;;;;;6.63;5.82;;;;;;;21.25;63.21;99188.16;5086025;28;20105;-71
2022/08/29 00:35:30;;;;;;;6.57;5.80;;;;;;;21.27;63.03;99183.44;5086980;28;20037;-70
2022/08/29 00:37:58;;;;;;;9.43;5.75;;;;;;;21.24;63.46;99191.84;5087225;28;20041;-71
2022/08/29 00:40:30;;;;;;;10.13;5.88;;;;;;;21.27;63.28;99191.53;5086614;28;20064;-71
2022/08/29 00:43:00;;;;;;;7.28;6.25;;;;;;;21.26;63.72;99191.69;5086870;28;20049;-70
2022/08/29 00:45:28;;;;;;;8.35;5.82;;;;;;;21.24;63.36;99193.69;5086578;28;20060;-70
2022/08/29 00:47:58;;;;;;;6.25;5.40;;;;;;;21.27;63.01;99196.91;5086879;28;20113;-70
2022/08/29 00:50:30;;;;;;;6.07;4.68;;;;;;;21.29;62.49;99194.91;5086709;28;20052;-71
2022/08/29 00:53:01;;;;;;;6.38;5.70;;;;;;;21.25;62.35;99190.84;5086619;28;20102;-71
2022/08/29 00:55:32;;;;;;;7.07;6.38;;;;;;;21.25;63.00;99184.59;5086420;28;20098;-71
2022/08/29 00:58:08;;;;;;;9.23;5.68;;;;;;;21.21;63.12;99189.47;5086681;28;20044;-72
2022/08/29 01:00:37;;;;;;;8.05;5.35;;;;;;;21.15;63.31;99187.41;5086793;28;20048;-71
2022/08/29 01:03:04;;;;;;;5.65;5.05;;;;;;;21.11;63.22;99180.63;5086435;28;20094;-71
2022/08/29 01:05:32;;;;;;;7.38;5.05;;;;;;;21.13;63.33;99184.00;5086476;28;20041;-71
2022/08/29 01:08:00;;;;;;;7.60;5.90;;;;;;;21.17;63.37;99184.53;5086309;28;20109;-72
2022/08/29 01:13:14;;;;;;;5.68;5.07;;;;;;;21.10;63.30;99178.94;5086565;28;20063;-71
2022/08/29 01:15:45;;;;;;;7.28;5.60;;;;;;;21.06;62.91;99185.63;5086299;28;20113;-72
2022/08/29 01:18:15;;;;;;;8.23;5.75;;;;;;;21.05;63.54;99186.63;5084927;28;20052;-71
2022/08/29 01:20:58;;;;;;;7.03;5.10;;;;;;;21.04;63.28;99180.41;5085469;28;20056;-72
2022/08/29 01:23:32;;;;;;;8.82;5.20;;;;;;;21.02;63.56;99189.59;5086401;28;20113;-71
2022/08/29 01:26:03;;;;;;;6.72;5.28;;;;;;;20.98;63.26;99191.75;5086563;28;20064;-71
2022/08/29 01:28:34;;;;;;;7.20;5.28;;;;;;;21.03;63.60;99189.47;5086087;28;20053;-70
2022/08/29 01:31:05;;;;;;;8.63;5.57;;;;;;;21.03;63.46;99196.72;5086057;28;20056;-71
2022/08/29 01:33:39;;;;;;;7.40;5.35;;;;;;;21.01;63.31;99191.44;5085837;28;20094;-72
2022/08/29 01:36:09;;;;;;;6.93;4.88;;;;;;;21.06;63.69;99193.72;5086045;28;20064;-71
2022/08/29 01:38:37;;;;;;;7.78;5.03;;;;;;;21.06;63.33;99196.41;5085561;28;20056;-71
2022/08/29 01:41:09;;;;;;;8.48;5.55;;;;;;;21.04;63.21;99203.81;5086580;28;20118;-71
2022/08/29 01:43:40;;;;;;;5.85;5.07;;;;;;;20.91;63.27;99184.44;5086004;28;20301;-71
2022/08/29 01:46:09;;;;;;;10.98;5.35;;;;;;;21.02;63.13;99198.56;5085544;28;20078;-71
2022/08/29 01:48:38;;;;;;;8.63;5.60;;;;;;;20.93;63.47;99177.06;5086035;28;20060;-72
2022/08/29 01:51:06;;;;;;;6.97;5.90;;;;;;;20.93;63.71;99179.75;5085860;28;20098;-72
2022/08/29 01:53:34;;;;;;;11.20;5.70;;;;;;;21.06;63.43;99191.88;5086589;28;20056;-72
2022/08/29 01:56:11;;;;;;;7.88;6.07;;;;;;;21.08;63.06;99199.78;5087259;28;20249;-72
2022/08/29 01:58:38;;;;;;;8.70;5.88;;;;;;;20.94;63.07;99178.75;5085574;28;20078;-72
2022/08/29 02:01:06;;;;;;;6.47;5.80;;;;;;;20.90;63.36;99175.53;5087490;28;20251;-72
2022/08/29 02:03:33;;;;;;;10.43;5.95;;;;;;;21.04;63.28;99201.09;5086150;28;20048;-71
2022/08/29 02:06:01;;;;;;;7.85;5.82;;;;;;;21.03;63.18;99200.25;5085624;28;20316;-71
2022/08/29 02:08:29;;;;;;;8.90;6.28;;;;;;;20.99;63.00;99209.63;5085680;28;20056;-72
2022/08/29 02:10:58;;;;;;;7.13;5.10;;;;;;;20.97;63.26;99210.78;5085489;28;20056;-71
2022/08/29 02:13:28;;;;;;;6.75;5.15;;;;;;;20.98;63.21;99209.78;5085521;28;20060;-72
2022/08/29 02:15:56;;;;;;;8.10;5.35;;;;;;;20.96;63.30;99214.47;5085546;28;20054;-72
2022/08/29 02:18:23;;;;;;;8.18;5.43;;;;;;;20.92;63.41;99205.84;5084622;28;20052;-71
2022/08/29 02:20:50;;;;;;;9.85;5.22;;;;;;;20.99;63.02;99209.63;5085292;28;20064;-71
2022/08/29 02:23:17;;;;;;;9.70;6.68;;;;;;;20.89;62.90;99208.00;5085490;28;20053;-71
2022/08/29 02:25:46;;;;;;;5.40;4.88;;;;;;;20.95;63.06;99228.94;5085268;28;20048;-72
2022/08/29 02:28:16;;;;;;;11.20;5.85;;;;;;;20.94;63.12;99224.56;5085097;28;20052;-72
2022/08/29 02:30:48;;;;;;;9.55;6.00;;;;;;;20.07;62.70;99088.69;5085502;28;20064;-72
2022/08/29 02:33:15;;;;;;;12.15;5.72;;;;;;;20.85;63.37;99237.09;5088183;28;20045;-72
2022/08/29 02:35:43;;;;;;;5.03;4.30;;;;;;;20.90;63.19;99231.25;5089397;28;20060;-72
2022/08/29 02:38:11;;;;;;;8.85;5.53;;;;;;;18.79;62.96;98880.84;5089007;28;20102;-71
2022/08/29 02:40:40;;;;;;;6.22;4.97;;;;;;;20.89;63.04;99233.09;5089160;28;20113;-71
2022/08/29 02:43:08;;;;;;;8.60;4.82;;;;;;;20.83;62.90;99231.84;5089231;28;20259;-71
2022/08/29 02:45:40;;;;;;;10.20;5.57;;;;;;;20.80;63.27;99234.00;5088392;28;20037;-71
2022/08/29 02:48:13;;;;;;;8.45;5.22;;;;;;;20.85;62.98;99210.16;5088909;28;20123;-72
2022/08/29 02:50:41;;;;;;;10.15;5.00;;;;;;;20.82;63.18;99222.09;5089197;28;20316;-73
2022/08/29 02:53:09;;;;;;;5.65;4.43;;;;;;;20.34;63.20;99146.19;5088867;28;20052;-72
2022/08/29 02:55:36;;;;;;;7.55;4.50;;;;;;;20.87;63.04;99216.25;5087696;28;20044;-72
2022/08/29 02:58:03;;;;;;;7.00;5.05;;;;;;;20.69;63.05;99194.69;5088794;28;20056;-72
2022/08/29 03:00:32;;;;;;;5.75;4.45;;;;;;;19.94;62.59;99069.38;5088747;28;20105;-72
2022/08/29 03:03:00;;;;;;;6.90;4.57;;;;;;;20.49;63.05;99163.50;5088623;28;20063;-72
2022/08/29 03:05:33;;;;;;;7.90;5.00;;;;;;;20.90;62.93;99215.94;5088212;28;20064;-72
2022/08/29 03:08:02;;;;;;;5.30;4.35;;;;;;;20.89;62.84;99208.84;5088363;28;20102;-72
2022/08/29 03:10:30;;;;;;;7.63;4.60;;;;;;;20.83;63.02;99202.22;5087805;28;20068;-72
2022/08/29 03:12:57;;;;;;;9.85;5.85;;;;;;;20.96;63.03;99222.56;5088412;28;20056;-73
2022/08/29 03:15:26;;;;;;;6.15;4.75;;;;;;;20.98;62.86;99225.94;5087994;28;20106;-72
2022/08/29 03:17:54;;;;;;;6.97;4.35;;;;;;;20.96;62.92;99223.41;5088326;28;20060;-73
2022/08/29 03:20:22;;;;;;;6.88;4.85;;;;;;;20.97;62.41;99229.63;5088136;28;20056;-72
2022/08/29 03:22:52;;;;;;;5.95;4.55;;;;;;;20.95;62.79;99224.41;5088285;28;20053;-72
2022/08/29 03:25:20;;;;;;;8.52;5.10;;;;;;;20.90;62.67;99218.63;5088250;28;20048;-72
2022/08/29 03:27:48;;;;;;;10.30;4.70;;;;;;;20.91;62.59;99228.41;5087687;28;20060;-72
2022/08/29 03:30:17;;;;;;;6.22;4.53;;;;;;;20.78;62.18;99209.91;5088383;28;20060;-72
2022/08/29 03:32:44;;;;;;;7.03;5.25;;;;;;;20.35;62.77;99158.66;5088472;28;20056;-71
2022/08/29 03:35:13;;;;;;;8.57;5.22;;;;;;;20.77;62.53;99219.00;5088033;28;20269;-71
2022/08/29 03:37:40;;;;;;;6.93;4.95;;;;;;;20.76;62.06;99227.22;5088051;28;20056;-72
2022/08/29 03:40:11;;;;;;;8.60;5.45;;;;;;;20.88;62.12;99250.25;5088000;28;20110;-72
2022/08/29 03:42:39;;;;;;;8.27;5.10;;;;;;;20.72;62.32;99225.84;5087093;28;20078;-72
2022/08/29 03:45:10;;;;;;;8.45;4.95;;;;;;;20.86;62.42;99256.78;5087920;28;20053;-72
2022/08/29 03:47:38;;;;;;;8.40;5.35;;;;;;;20.83;62.59;99253.41;5087531;28;20052;-72
2022/08/29 03:50:06;;;;;;;9.82;5.32;;;;;;;20.85;62.19;99255.09;5088107;28;20086;-72
2022/08/29 03:52:33;;;;;;;6.63;4.63;;;;;;;20.87;62.50;99253.09;5087743;28;20186;-72
2022/08/29 03:55:00;;;;;;;5.80;4.78;;;;;;;20.81;61.75;99255.41;5087460;28;20305;-72
2022/08/29 03:57:32;;;;;;;6.38;4.90;;;;;;;20.78;61.89;99250.31;5087808;28;20315;-72
2022/08/29 04:00:00;;;;;;;7.93;5.70;;;;;;;20.72;62.20;99258.16;5087789;28;20056;-72
2022/08/29 04:02:27;;;;;;;9.43;7.82;;;;;;;20.73;62.11;99258.00;5087390;28;20325;-72
2022/08/29 04:05:09;;;;;;;9.65;7.40;;;;;;;20.70;61.87;99258.31;5087605;28;20098;-72
2022/08/29 04:07:45;;;;;;;8.02;6.15;;;;;;;20.73;62.10;99263.38;5087761;28;20090;-72
2022/08/29 04:10:15;;;;;;;10.38;5.35;;;;;;;20.50;62.15;99229.81;5087046;28;20062;-72
2022/08/29 04:12:44;;;;;;;6.18;5.40;;;;;;;20.75;61.93;99265.94;5086938;28;20062;-71
2022/08/29 04:15:12;;;;;;;7.85;4.88;;;;;;;20.69;62.09;99272.78;5087365;28;20074;-72
2022/08/29 04:17:40;;;;;;;14.38;5.78;;;;;;;20.71;61.98;99270.78;5086729;28;20056;-73
2022/08/29 04:20:09;;;;;;;10.48;5.10;;;;;;;20.56;62.32;99244.50;5087028;28;20109;-73
2022/08/29 04:22:39;;;;;;;7.72;4.63;;;;;;;20.68;62.10;99273.78;5087040;28;20052;-74
2022/08/29 04:25:11;;;;;;;6.32;5.15;;;;;;;20.67;62.10;99277.47;5086771;28;20098;-73
2022/08/29 04:27:40;;;;;;;5.57;4.38;;;;;;;20.70;61.95;99279.00;5087131;28;20063;-74
2022/08/29 04:30:12;;;;;;;5.55;4.25;;;;;;;20.70;61.08;99277.16;5086809;28;20074;-74
2022/08/29 04:32:39;;;;;;;6.18;4.80;;;;;;;20.26;61.68;99224.97;5086961;28;20229;-74
2022/08/29 04:35:08;;;;;;;5.78;4.78;;;;;;;20.54;61.87;99265.34;5086405;28;20078;-73
2022/08/29 04:37:35;;;;;;;8.50;4.85;;;;;;;20.55;61.82;99265.19;5086551;28;20268;-73
2022/08/29 04:40:03;;;;;;;9.65;6.18;;;;;;;20.65;61.87;99276.75;5086656;28;20052;-73
2022/08/29 04:42:30;;;;;;;6.15;4.80;;;;;;;20.67;61.97;99282.84;5086787;28;20048;-73
2022/08/29 04:44:58;;;;;;;7.88;5.22;;;;;;;20.54;61.44;99271.59;5086445;28;20082;-73
2022/08/29 04:47:27;;;;;;;9.35;4.95;;;;;;;20.69;61.55;99280.00;5086332;28;20325;-73
2022/08/29 04:49:55;;;;;;;7.45;5.40;;;;;;;20.68;61.60;99283.69;5086916;28;20056;-73
2022/08/29 04:52:23;;;;;;;9.45;4.75;;;;;;;20.66;61.66;99294.63;5086857;28;20300;-73
2022/08/29 04:54:50;;;;;;;8.80;5.32;;;;;;;20.63;61.51;99300.31;5085443;28;20061;-72
2022/08/29 04:57:17;;;;;;;6.18;4.35;;;;;;;20.54;62.00;99278.81;5086447;28;20190;-72
2022/08/29 04:59:46;;;;;;;8.15;5.28;;;;;;;20.65;61.90;99298.31;5085181;28;20053;-72
2022/08/29 05:02:13;;;;;;;7.50;4.55;;;;;;;20.40;61.41;99269.38;5086384;28;20056;-72
2022/08/29 05:04:42;;;;;;;6.28;4.88;;;;;;;20.67;61.31;99303.53;5086424;28;20110;-72
2022/08/29 05:07:10;;;;;;;6.38;4.40;;;;;;;20.65;60.85;99308.22;5086365;28;20056;-73
2022/08/29 05:09:37;;;;;;;7.65;4.53;;;;;;;20.67;61.37;99306.22;5086326;28;20056;-72
2022/08/29 05:12:06;;;;;;;6.25;4.20;;;;;;;20.62;61.50;99306.69;5086299;28;20064;-72
2022/08/29 05:14:33;;;;;;;9.23;5.30;;;;;;;20.60;61.45;99314.06;5086187;28;20316;-72
2022/08/29 05:17:01;;;;;;;8.23;5.10;;;;;;;20.63;61.56;99319.16;5086163;28;20056;-72
2022/08/29 05:19:28;;;;;;;7.13;5.15;;;;;;;20.64;61.49;99323.53;5085839;28;20060;-71
2022/08/29 05:21:57;;;;;;;6.90;4.43;;;;;;;20.56;61.30;99318.06;5085876;28;20056;-73
2022/08/29 05:24:25;;;;;;;12.50;5.03;;;;;;;20.47;62.00;99303.63;5086055;28;20052;-73
2022/08/29 05:26:52;;;;;;;8.57;5.10;;;;;;;20.58;61.79;99317.91;5086147;28;20056;-73
2022/08/29 05:29:20;;;;;;;5.85;4.72;;;;;;;20.53;61.80;99312.13;5085813;28;20055;-74
2022/08/29 05:31:48;;;;;;;9.30;5.13;;;;;;;20.60;62.14;99321.28;5084958;28;20119;-73
2022/08/29 05:34:15;;;;;;;6.30;4.05;;;;;;;20.58;61.83;99320.59;5084784;28;20056;-71
2022/08/29 05:36:42;;;;;;;6.05;4.43;;;;;;;19.65;61.69;99177.03;5085661;28;20060;-72
2022/08/29 05:39:11;;;;;;;9.40;4.80;;;;;;;20.53;62.04;99321.03;5085838;28;20260;-71
2022/08/29 05:41:39;;;;;;;9.48;4.63;;;;;;;20.56;61.67;99319.91;5085766;28;20106;-71
2022/08/29 05:44:06;;;;;;;8.27;4.80;;;;;;;20.59;61.99;99319.59;5085796;28;20086;-71
2022/08/29 05:46:33;;;;;;;8.77;5.03;;;;;;;20.55;61.76;99319.03;5086005;28;20235;-71
2022/08/29 05:49:01;;;;;;;6.75;4.22;;;;;;;20.61;61.74;99329.22;5084781;28;20044;-70
2022/08/29 05:51:28;;;;;;;11.38;5.03;;;;;;;20.64;62.00;99333.47;5085463;28;20324;-71
2022/08/29 05:53:55;;;;;;;8.40;5.43;;;;;;;20.65;61.80;99337.84;5085626;28;20083;-70
2022/08/29 05:56:26;;;;;;;8.57;4.70;;;;;;;20.67;61.71;99381.63;5085272;28;20118;-71
2022/08/29 05:58:53;;;;;;;8.60;5.18;;;;;;;20.66;61.61;99331.47;5085794;28;20284;-71
2022/08/29 06:01:22;;;;;;;10.10;5.50;;;;;;;20.51;61.63;99309.56;5084399;28;20300;-71
2022/08/29 06:03:50;;;;;;;6.00;4.85;;;;;;;20.61;61.30;99323.84;5084984;28;20056;-71
2022/08/29 06:06:20;;;;;;;7.90;4.45;;;;;;;20.59;61.38;99336.59;5085124;28;20098;-71
2022/08/29 06:08:48;;;;;;;9.43;4.97;;;;;;;20.60;61.39;99335.59;5084931;28;20056;-71
2022/08/29 06:11:17;;;;;;;8.88;4.60;;;;;;;20.65;61.36;99343.22;5083905;28;20053;-71
2022/08/29 06:13:45;;;;;;;9.48;5.57;;;;;;;20.68;61.34;99342.94;5085035;28;20064;-71
2022/08/29 06:16:14;;;;;;;7.43;4.30;;;;;;;20.71;61.73;99348.88;5085104;28;20053;-71
2022/08/29 06:18:42;;;;;;;7.40;4.68;;;;;;;20.68;61.21;99349.16;5085307;28;20102;-70
2022/08/29 06:21:10;;;;;;;6.75;4.53;;;;;;;20.69;61.51;99358.09;5084928;28;20056;-71
2022/08/29 06:23:38;;;;;;;7.68;4.97;;;;;;;20.63;61.24;99354.16;5085201;28;20053;-71
2022/08/29 06:26:07;;;;;;;6.85;4.82;;;;;;;20.68;61.33;99351.88;5085079;28;20139;-71
2022/08/29 06:28:36;;;;;;;8.23;5.80;;;;;;;20.73;61.06;99354.09;5084883;28;20105;-71
2022/08/29 06:31:10;;;;;;;8.02;4.88;;;;;;;20.78;60.88;99347.28;5084896;28;20381;-71
2022/08/29 06:33:38;;;;;;;10.13;5.40;;;;;;;20.69;61.11;99326.63;5085059;28;20176;-71
2022/08/29 06:36:07;;;;;;;7.50;4.25;;;;;;;20.98;60.88;99352.56;5084890;28;20350;-71
2022/08/29 06:38:35;;;;;;;7.97;4.63;;;;;;;21.22;59.67;99346.63;5084881;28;20101;-71
2022/08/29 06:41:03;;;;;;;7.38;4.50;;;;;;;21.40;58.89;99321.38;5085074;28;20087;-71
2022/08/29 06:43:31;;;;;;;8.32;5.20;;;;;;;21.85;58.04;99342.00;5085475;28;20056;-71
2022/08/29 06:45:58;;;;;;;7.75;5.13;;;;;;;22.14;57.85;99346.25;5084671;28;20057;-72
2022/08/29 06:48:27;;;;;;;14.93;5.60;;;;;;;22.37;56.38;99333.94;5085007;28;20056;-72
2022/08/29 06:50:55;;;;;;;5.80;4.28;;;;;;;22.47;56.04;99315.78;5084976;28;20181;-71
2022/08/29 06:53:22;;;;;;;7.50;4.93;;;;;;;22.83;55.18;99337.25;5084857;28;20220;-72
2022/08/29 06:55:50;;;;;;;7.43;4.50;;;;;;;23.00;55.14;99342.53;5084563;28;20169;-72
2022/08/29 06:58:17;;;;;;;16.20;5.15;;;;;;;23.16;54.33;99344.44;5084636;28;20060;-72
2022/08/29 07:00:44;;;;;;;6.82;4.95;;;;;;;23.36;54.50;99343.16;5084886;28;20102;-71
2022/08/29 07:03:13;;;;;;;9.18;4.82;;;;;;;23.56;53.98;99351.81;5084897;28;20120;-71
2022/08/29 07:05:42;;;;;;;7.35;4.22;;;;;;;23.68;52.88;99353.16;5084563;28;20102;-72
2022/08/29 07:08:09;;;;;;;17.45;5.78;;;;;;;23.74;53.02;99348.09;5084900;28;20109;-72
2022/08/29 07:10:36;;;;;;;6.32;4.53;;;;;;;23.87;52.98;99357.41;5084457;28;20064;-72
2022/08/29 07:13:04;;;;;;;6.60;4.28;;;;;;;23.75;52.46;99317.31;5084517;28;20050;-71
2022/08/29 07:15:35;;;;;;;6.30;4.55;;;;;;;24.00;52.26;99355.06;5084325;28;20048;-71
2022/08/29 07:18:02;;;;;;;6.65;5.00;;;;;;;24.15;52.47;99348.94;5086108;28;20113;-71
2022/08/29 07:20:29;;;;;;;6.50;4.05;;;;;;;24.28;52.68;99358.25;5087481;28;20051;-71
2022/08/29 07:22:58;;;;;;;6.10;4.22;;;;;;;24.22;51.79;99355.38;5087798;28;20106;-71
2022/08/29 07:25:26;;;;;;;7.07;4.82;;;;;;;24.17;52.09;99355.88;5088213;28;20067;-71
2022/08/29 07:27:53;;;;;;;6.93;4.80;;;;;;;24.10;51.97;99357.59;5087829;28;20056;-71
2022/08/29 07:30:22;;;;;;;6.90;4.10;;;;;;;23.92;52.40;99348.78;5088088;28;20170;-71
2022/08/29 07:32:49;;;;;;;7.50;4.25;;;;;;;23.96;53.22;99360.94;5088030;28;20053;-71
2022/08/29 07:35:17;;;;;;;7.05;4.82;;;;;;;23.87;52.88;99361.97;5087996;28;20082;-70
2022/08/29 07:37:44;;;;;;;6.78;4.78;;;;;;;23.93;52.93;99364.84;5087566;28;20110;-71
2022/08/29 07:40:16;;;;;;;6.60;4.45;;;;;;;24.07;51.64;99346.25;5087731;28;20053;-71
2022/08/29 07:42:44;;;;;;;7.13;4.43;;;;;;;24.30;52.12;99358.91;5087565;28;20114;-70
2022/08/29 07:45:12;;;;;;;6.18;4.13;;;;;;;24.46;51.57;99358.03;5087889;28;20182;-71
2022/08/29 07:47:39;;;;;;;9.55;5.05;;;;;;;24.58;51.37;99353.94;5086684;28;20056;-71
2022/08/29 07:50:10;;;;;;;7.57;4.43;;;;;;;24.81;50.65;99370.31;5087617;28;20057;-71
2022/08/29 07:52:37;;;;;;;8.25;4.43;;;;;;;24.91;50.85;99368.25;5087827;28;20094;-71
2022/08/29 07:55:06;;;;;;;7.15;4.80;;;;;;;25.02;49.99;99366.19;5087621;28;20057;-71
2022/08/29 07:57:34;;;;;;;7.95;4.80;;;;;;;24.77;49.92;99306.63;5087377;28;20059;-71
2022/08/29 08:00:02;;;;;;;8.35;4.57;;;;;;;25.25;49.73;99375.22;5087583;28;20319;-71
2022/08/29 08:02:30;;;;;;;5.97;4.43;;;;;;;25.41;49.64;99363.47;5087048;28;20174;-71
2022/08/29 08:04:57;;;;;;;6.53;4.15;;;;;;;25.45;49.58;99357.50;5087332;28;20106;-71
2022/08/29 08:07:24;;;;;;;6.32;4.53;;;;;;;25.37;49.37;99372.97;5087185;28;20049;-71
2022/08/29 08:09:52;;;;;;;6.82;4.88;;;;;;;25.32;50.05;99369.94;5087023;28;20133;-71
2022/08/29 08:12:19;;;;;;;6.53;3.80;;;;;;;25.22;49.81;99372.88;5087255;28;20110;-71
2022/08/29 08:14:48;;;;;;;11.85;4.57;;;;;;;25.17;50.76;99369.84;5086855;28;20115;-71
2022/08/29 08:17:15;;;;;;;7.20;4.53;;;;;;;25.12;50.15;99364.09;5086692;28;20064;-71
2022/08/29 08:19:43;;;;;;;8.05;5.05;;;;;;;25.13;49.47;99369.34;5086821;28;20082;-71
2022/08/29 08:22:10;;;;;;;7.45;4.93;;;;;;;25.21;49.99;99369.31;5087156;28;20368;-71
2022/08/29 08:24:37;;;;;;;7.93;4.40;;;;;;;25.32;49.22;99375.34;5086858;28;20052;-71
2022/08/29 08:27:05;;;;;;;5.63;4.35;;;;;;;25.36;49.35;99365.88;5087186;28;20358;-71
2022/08/29 08:29:32;;;;;;;9.10;5.90;;;;;;;25.41;48.30;99374.31;5086577;28;20121;-71
2022/08/29 08:32:01;;;;;;;5.68;4.13;;;;;;;25.28;48.78;99362.16;5086863;28;20103;-71
2022/08/29 08:34:32;;;;;;;6.40;3.60;;;;;;;25.38;48.64;99377.38;5086543;28;20115;-71
2022/08/29 08:36:59;;;;;;;5.78;3.90;;;;;;;25.47;48.21;99377.16;5086718;28;20059;-71
2022/08/29 08:39:26;;;;;;;9.73;4.60;;;;;;;25.47;48.64;99384.44;5086811;28;20114;-71
2022/08/29 08:41:57;;;;;;;6.05;3.75;;;;;;;25.56;48.49;99380.66;5086421;28;20086;-71
2022/08/29 08:44:49;;;;;;;4.88;3.35;;;;;;;25.49;46.93;99379.69;5086710;28;20309;-71
2022/08/29 08:47:24;;;;;;;5.50;3.75;;;;;;;25.47;47.72;99382.56;5081632;28;20056;-71
2022/08/29 08:49:56;;;;;;;8.30;4.15;;;;;;;25.12;47.63;99316.13;5086768;28;20056;-71
2022/08/29 08:52:30;;;;;;;4.93;3.70;;;;;;;25.70;47.45;99390.72;5086422;28;20362;-71
2022/08/29 08:55:01;;;;;;;6.65;3.92;;;;;;;25.84;47.19;99381.81;5086398;28;20044;-71
2022/08/29 08:57:41;;;;;;;6.35;3.38;;;;;;;25.79;46.71;99362.50;5086255;28;20056;-71
2022/08/29 09:00:11;;;;;;;8.27;4.28;;;;;;;25.50;46.80;99308.97;5086277;28;20056;-71
2022/08/29 09:02:51;;;;;;;6.90;3.60;;;;;;;25.92;45.75;99379.03;5086089;28;20227;-71
2022/08/29 09:05:35;;;;;;;6.57;3.97;;;;;;;25.90;45.16;99380.22;5086171;28;20267;-71
2022/08/29 09:08:11;;;;;;;6.30;3.67;;;;;;;25.86;45.81;99387.91;5086111;28;20098;-71
2022/08/29 09:10:47;;;;;;;6.25;3.35;;;;;;;25.86;45.79;99382.47;5085883;28;20057;-70
2022/08/29 09:13:30;;;;;;;4.65;3.58;;;;;;;25.87;45.81;99377.88;5085904;28;20064;-71
2022/08/29 09:16:01;;;;;;;7.03;3.97;;;;;;;25.92;46.36;99380.88;5086099;28;20056;-71
2022/08/29 09:18:34;;;;;;;7.30;3.55;;;;;;;26.08;45.89;99377.22;5085585;28;20098;-71
2022/08/29 09:21:02;;;;;;;6.22;3.95;;;;;;;25.99;47.24;99376.44;5086035;28;20048;-71
2022/08/29 09:23:37;;;;;;;5.35;3.28;;;;;;;25.99;47.19;99381.88;5086051;28;20056;-71
2022/08/29 09:26:04;;;;;;;5.90;4.03;;;;;;;25.91;47.17;99385.47;5085956;28;20057;-71
2022/08/29 09:28:32;;;;;;;6.63;4.75;;;;;;;25.79;47.76;99370.66;5085576;28;20074;-71
2022/08/29 09:31:21;;;;;;;6.15;4.97;;;;;;;25.94;46.15;99381.56;5085514;28;20052;-71
2022/08/29 09:33:53;;;;;;;5.55;4.43;;;;;;;25.90;46.45;99391.94;5085727;28;20056;-71
2022/08/29 09:36:43;;;;;;;8.05;4.80;;;;;;;25.91;45.47;99374.63;5085550;28;20075;-71
2022/08/29 09:39:14;;;;;;;5.10;3.90;;;;;;;25.97;46.24;99377.63;5082693;28;20056;-71
2022/08/29 09:41:43;;;;;;;5.05;3.80;;;;;;;26.04;46.64;99373.19;5085283;28;20052;-71
2022/08/29 09:44:14;;;;;;;4.85;3.70;;;;;;;26.18;45.50;99366.94;5085262;28;20267;-71
2022/08/29 09:46:42;;;;;;;6.57;4.10;;;;;;;26.17;46.67;99360.66;5085386;28;20389;-71
2022/08/29 09:49:14;;;;;;;4.53;3.50;;;;;;;26.09;45.41;99377.03;5085529;28;20082;-71
2022/08/29 09:51:43;;;;;;;6.72;3.92;;;;;;;26.13;46.43;99372.09;5085648;28;20045;-72
2022/08/29 09:54:15;;;;;;;4.57;3.53;;;;;;;26.17;45.53;99376.13;5085580;28;20106;-71
2022/08/29 09:56:49;;;;;;;5.63;4.03;;;;;;;26.31;45.55;99369.88;5085528;28;20052;-71
2022/08/29 09:59:23;;;;;;;5.13;3.65;;;;;;;26.37;45.33;99373.72;5085437;28;20036;-71
2022/08/29 10:01:50;;;;;;;5.20;3.78;;;;;;;26.41;46.07;99365.00;5085515;28;20044;-71
2022/08/29 10:04:37;;;;;;;7.68;3.85;;;;;;;26.43;44.11;99373.81;5085406;28;20089;-71
2022/08/29 10:07:09;;;;;;;4.90;3.63;;;;;;;26.39;45.03;99363.50;5085333;28;20078;-71
2022/08/29 10:09:37;;;;;;;4.57;3.55;;;;;;;26.50;46.12;99361.19;5085218;28;20125;-72
2022/08/29 10:12:11;;;;;;;9.07;5.40;;;;;;;26.37;44.84;99333.81;5085238;28;20056;-71
2022/08/29 10:14:43;;;;;;;6.53;4.82;;;;;;;26.72;45.48;99362.16;5085236;28;20053;-71
2022/08/29 10:20:05;;;;;;;5.95;3.75;;;;;;;26.85;44.04;99358.75;5085111;28;20090;-71
2022/08/29 10:22:37;;;;;;;5.40;3.50;;;;;;;26.89;43.75;99354.63;5085132;28;20091;-71
2022/08/29 10:25:08;;;;;;;7.10;4.53;;;;;;;26.98;44.02;99361.66;5085007;28;20056;-71
2022/08/29 10:27:42;;;;;;;6.10;4.43;;;;;;;27.07;43.42;99354.22;5084701;28;20052;-72
2022/08/29 10:30:13;;;;;;;5.65;4.28;;;;;;;27.15;43.98;99356.84;5084914;28;20121;-71
2022/08/29 10:33:09;;;;;;;5.65;3.97;;;;;;;27.08;41.49;99356.75;5084815;28;20256;-71
2022/08/29 10:35:42;;;;;;;5.93;4.15;;;;;;;27.13;41.99;99356.19;5084698;28;20114;-71
2022/08/29 10:38:18;;;;;;;4.22;3.00;;;;;;;27.18;42.06;99346.41;5084616;28;20111;-72
2022/08/29 10:40:49;;;;;;;4.43;3.13;;;;;;;27.25;42.73;99351.13;5084583;28;20194;-72
2022/08/29 10:43:38;;;;;;;5.28;3.40;;;;;;;27.26;40.46;99353.66;5084758;28;20113;-71
2022/08/29 10:46:50;;;;;;;5.55;3.28;;;;;;;27.27;40.62;99357.22;5084685;28;20064;-71
2022/08/29 10:49:31;;;;;;;5.45;2.83;;;;;;;27.21;40.33;99352.50;5037427;28;20056;-72
2022/08/29 10:52:10;;;;;;;4.72;3.03;;;;;;;27.15;41.07;99344.09;5084694;28;20326;-71
2022/08/29 10:54:49;;;;;;;4.88;3.30;;;;;;;27.22;40.99;99346.88;5088093;28;20060;-71
2022/08/29 10:57:41;;;;;;;4.30;2.80;;;;;;;27.30;40.49;99348.69;5088422;28;20057;-71
2022/08/29 11:00:11;;;;;;;4.07;2.90;;;;;;;27.23;40.88;99329.56;5088442;28;20255;-71
2022/08/29 11:02:44;;;;;;;4.38;2.90;;;;;;;27.10;39.48;99294.00;5088188;28;20060;-71
2022/08/29 11:05:16;;;;;;;5.80;3.60;;;;;;;27.02;41.20;99284.09;5088309;28;20052;-70
2022/08/29 11:07:48;;;;;;;6.93;4.15;;;;;;;27.40;40.56;99331.00;5088380;28;20335;-71
2022/08/29 11:10:19;;;;;;;6.30;3.05;;;;;;;27.41;41.39;99334.56;5087887;28;20060;-71
2022/08/29 11:12:54;;;;;;;4.93;3.47;;;;;;;27.37;39.65;99317.78;5087984;28;20165;-71
2022/08/29 11:15:26;;;;;;;3.47;2.58;;;;;;;27.49;39.58;99331.72;5088174;28;20320;-71
2022/08/29 11:18:01;;;;;;;3.95;2.70;;;;;;;27.39;39.43;99312.16;5087764;28;20053;-73
2022/08/29 11:20:34;;;;;;;4.35;2.70;;;;;;;25.48;39.48;98979.19;5088229;28;20064;-72
2022/08/29 11:23:12;;;;;;;4.57;2.95;;;;;;;27.57;38.28;99326.16;5088172;28;20362;-72
2022/08/29 11:25:42;;;;;;;4.05;3.00;;;;;;;27.61;39.60;99334.78;5087653;28;20305;-73
2022/08/29 11:28:21;;;;;;;5.75;3.17;;;;;;;27.55;39.33;99309.16;5088020;28;20075;-72
2022/08/29 11:30:54;;;;;;;4.00;3.03;;;;;;;27.66;40.18;99325.00;5087660;28;20362;-73
2022/08/29 11:33:36;;;;;;;4.05;2.88;;;;;;;27.69;39.22;99323.78;5087759;28;20053;-73
2022/08/29 11:36:20;;;;;;;9.93;2.80;;;;;;;27.56;38.44;99315.44;5086965;28;20060;-73
2022/08/29 11:39:17;;;;;;;4.30;2.45;;;;;;;27.39;39.04;99303.97;5088019;28;20078;-73
2022/08/29 11:41:47;;;;;;;4.57;3.47;;;;;;;27.25;40.30;99288.56;5087406;28;20101;-72
2022/08/29 11:44:23;;;;;;;5.25;3.15;;;;;;;27.58;39.11;99318.81;5087556;28;20255;-72
2022/08/29 11:46:51;;;;;;;4.38;3.17;;;;;;;27.48;40.26;99303.66;5087542;28;20068;-71
2022/08/29 11:49:25;;;;;;;4.90;3.28;;;;;;;27.58;39.69;99316.94;5087855;28;20170;-71
2022/08/29 11:51:55;;;;;;;4.57;2.60;;;;;;;27.52;39.71;99315.00;5087681;28;20040;-71